createdAt,value
2019-03-15T00:02:22.950Z,95933.81
2019-03-15T00:04:53.289Z,95935.02
2019-03-15T00:07:23.633Z,95936.50
2019-03-15T00:09:53.961Z,95942.09
2019-03-15T00:12:24.363Z,95947.81
2019-03-15T00:14:54.654Z,95949.67
2019-03-15T00:17:24.974Z,95950.15
2019-03-15T00:19:55.361Z,95949.53
2019-03-15T00:22:25.886Z,95947.81
2019-03-15T00:24:56.272Z,95943.44
2019-03-15T00:27:26.571Z,95943.06
2019-03-15T00:29:57.616Z,95930.89
2019-03-15T00:32:28.306Z,95921.13
2019-03-15T00:34:59.065Z,95913.79
2019-03-15T00:37:30.762Z,95926.72
2019-03-15T00:40:01.529Z,95919.53
2019-03-15T00:42:36.384Z,95925.86
2019-03-15T00:45:08.344Z,95932.09
2019-03-15T00:47:39.032Z,95939.04
2019-03-15T00:50:10.208Z,95950.15
2019-03-15T00:52:40.544Z,95951.73
2019-03-15T00:55:10.953Z,95953.06
2019-03-15T00:57:41.361Z,95947.81
2019-03-15T01:00:12.926Z,95958.91
2019-03-15T01:02:44.373Z,95964.28
2019-03-15T01:05:14.887Z,95966.11
2019-03-15T01:07:45.155Z,95966.73
2019-03-15T01:10:15.614Z,95963.91
2019-03-15T01:12:46.028Z,95954.41
2019-03-15T01:15:16.539Z,95968.55
2019-03-15T01:17:46.985Z,95964.00
2019-03-15T01:20:17.235Z,95974.39
2019-03-15T01:22:48.901Z,95973.05
2019-03-15T01:25:19.250Z,95975.50
2019-03-15T01:27:49.580Z,95975.50
2019-03-15T01:30:24.834Z,95981.23
2019-03-15T01:32:55.187Z,95975.50
2019-03-15T01:35:25.443Z,95979.76
2019-03-15T01:37:55.725Z,95990.73
2019-03-15T01:40:26.092Z,95999.30
2019-03-15T01:42:56.424Z,95997.54
2019-03-15T01:45:26.896Z,95997.92
2019-03-15T01:47:57.272Z,95999.02
2019-03-15T01:50:27.603Z,95999.30
2019-03-15T01:52:58.509Z,95990.16
2019-03-15T01:55:28.897Z,95993.94
2019-03-15T01:57:59.184Z,96004.42
2019-03-15T02:00:29.429Z,96016.02
2019-03-15T02:03:02.354Z,95997.96
2019-03-15T02:05:31.792Z,95975.30
2019-03-15T02:08:02.131Z,95971.41
2019-03-15T02:10:32.792Z,95971.14
2019-03-15T02:13:03.264Z,95962.88
2019-03-15T02:15:33.597Z,95974.09
2019-03-15T02:18:04.174Z,95957.14
2019-03-15T02:20:34.777Z,95979.70
2019-03-15T02:23:06.747Z,95975.58
2019-03-15T02:25:37.310Z,95979.94
2019-03-15T02:28:08.019Z,95968.35
2019-03-15T02:30:38.340Z,95979.84
2019-03-15T02:33:08.766Z,95979.36
2019-03-15T02:35:39.183Z,95970.45
2019-03-15T02:38:09.534Z,95977.78
2019-03-15T02:40:40.232Z,95996.55
2019-03-15T02:43:13.311Z,96002.40
2019-03-15T02:45:43.651Z,96004.46
2019-03-15T02:48:15.077Z,96006.80
2019-03-15T02:50:47.209Z,96004.60
2019-03-15T02:53:17.593Z,95999.37
2019-03-15T02:55:48.532Z,96001.71
2019-03-15T02:58:20.048Z,95998.79
2019-03-15T03:00:50.411Z,96005.11
2019-03-15T03:03:21.005Z,96005.63
2019-03-15T03:05:51.333Z,96005.73
2019-03-15T03:08:22.627Z,96006.35
2019-03-15T03:10:53.105Z,96016.22
2019-03-15T03:13:23.406Z,96032.69
2019-03-15T03:15:53.843Z,96037.09
2019-03-15T03:18:24.086Z,96051.46
2019-03-15T03:20:54.425Z,96044.86
2019-03-15T03:23:24.771Z,96046.34
2019-03-15T03:25:55.677Z,96030.86
2019-03-15T03:28:25.883Z,96028.77
2019-03-15T03:30:56.194Z,96030.97
2019-03-15T03:33:26.563Z,96027.56
2019-03-15T03:35:56.856Z,96032.06
2019-03-15T03:38:27.219Z,96042.20
2019-03-15T03:40:57.487Z,96046.44
2019-03-15T03:43:28.876Z,96040.86
2019-03-15T03:45:59.126Z,96053.04
2019-03-15T03:48:29.358Z,96061.44
2019-03-15T03:51:00.363Z,96055.70
2019-03-15T03:53:33.668Z,96061.66
2019-03-15T03:56:04.005Z,96062.64
2019-03-15T03:58:34.247Z,96048.52
2019-03-15T04:01:07.423Z,96044.11
2019-03-15T04:03:37.663Z,96072.66
2019-03-15T04:06:07.902Z,96073.23
2019-03-15T04:08:38.207Z,96073.38
2019-03-15T04:11:08.561Z,96082.15
2019-03-15T04:13:38.950Z,96085.66
2019-03-15T04:16:12.051Z,96081.53
2019-03-15T04:18:42.391Z,96085.17
2019-03-15T04:21:13.088Z,96084.31
2019-03-15T04:23:43.419Z,96085.66
2019-03-15T04:26:14.814Z,96088.34
2019-03-15T04:28:45.150Z,96082.97
2019-03-15T04:31:15.391Z,96080.67
2019-03-15T04:33:45.676Z,96081.53
2019-03-15T04:36:16.176Z,96096.77
2019-03-15T04:38:46.749Z,96109.70
2019-03-15T04:41:18.075Z,96113.58
2019-03-15T04:43:48.439Z,96121.77
2019-03-15T04:46:18.780Z,96132.50
2019-03-15T04:48:50.088Z,96138.69
2019-03-15T04:51:20.412Z,96145.40
2019-03-15T04:53:50.733Z,96140.55
2019-03-15T04:56:21.101Z,96142.71
2019-03-15T04:58:51.511Z,96152.96
2019-03-15T05:01:21.829Z,96159.94
2019-03-15T05:03:53.739Z,96166.99
2019-03-15T05:06:24.039Z,96147.35
2019-03-15T05:08:54.356Z,96152.96
2019-03-15T05:11:24.591Z,96175.17
2019-03-15T05:13:54.986Z,96186.98
2019-03-15T05:16:25.999Z,96191.52
2019-03-15T05:18:56.349Z,96199.42
2019-03-15T05:21:27.755Z,96196.27
2019-03-15T05:23:58.214Z,96204.66
2019-03-15T05:26:28.658Z,96212.70
2019-03-15T05:29:00.209Z,96218.94
2019-03-15T05:31:30.567Z,96228.80
2019-03-15T05:34:00.827Z,96222.95
2019-03-15T05:36:31.152Z,96233.82
2019-03-15T05:39:04.103Z,96236.72
2019-03-15T05:41:34.483Z,96237.58
2019-03-15T05:44:04.803Z,96232.95
2019-03-15T05:46:35.055Z,96247.70
2019-03-15T05:49:05.355Z,96265.40
2019-03-15T05:51:35.696Z,96258.31
2019-03-15T05:54:06.031Z,96280.25
2019-03-15T05:56:36.347Z,96284.28
2019-03-15T05:59:06.747Z,96280.25
2019-03-15T06:01:37.046Z,96268.69
2019-03-15T06:04:07.377Z,96302.09
2019-03-15T06:06:38.101Z,96296.35
2019-03-15T06:09:08.476Z,96288.08
2019-03-15T06:11:38.790Z,96305.99
2019-03-15T06:14:09.065Z,96303.44
2019-03-15T06:16:39.352Z,96301.11
2019-03-15T06:19:09.717Z,96310.14
2019-03-15T06:21:40.081Z,96327.83
2019-03-15T06:24:13.789Z,96304.16
2019-03-15T06:26:45.519Z,96310.64
2019-03-15T06:29:15.785Z,96326.73
2019-03-15T06:31:46.197Z,96319.65
2019-03-15T06:34:16.452Z,96320.03
2019-03-15T06:36:46.702Z,96315.88
2019-03-15T06:39:16.972Z,96308.78
2019-03-15T06:41:47.295Z,96314.53
2019-03-15T06:44:17.676Z,96315.27
2019-03-15T06:46:48.123Z,96310.03
2019-03-15T06:49:18.434Z,96307.21
2019-03-15T06:51:48.762Z,96306.96
2019-03-15T06:54:19.114Z,96308.91
2019-03-15T06:56:49.478Z,96320.63
2019-03-15T06:59:19.794Z,96322.58
2019-03-15T07:01:50.733Z,96323.30
2019-03-15T07:04:21.399Z,96325.14
2019-03-15T07:06:51.660Z,96337.33
2019-03-15T07:09:22.004Z,96338.20
2019-03-15T07:11:52.376Z,96336.59
2019-03-15T07:14:22.756Z,96340.13
2019-03-15T07:16:52.976Z,96335.37
2019-03-15T07:19:27.630Z,96338.45
2019-03-15T07:21:55.811Z,96344.89
2019-03-15T07:24:26.258Z,96344.89
2019-03-15T07:26:56.384Z,96336.49
2019-03-15T07:29:26.716Z,96335.37
2019-03-15T07:31:57.646Z,96341.34
2019-03-15T07:34:27.940Z,96347.34
2019-03-15T07:36:58.273Z,96353.20
2019-03-15T07:39:28.546Z,96345.27
2019-03-15T07:42:00.922Z,96365.27
2019-03-15T07:44:31.357Z,96362.81
2019-03-15T07:47:02.107Z,96357.70
2019-03-15T07:49:32.353Z,96368.82
2019-03-15T07:52:03.995Z,96363.93
2019-03-15T07:54:38.259Z,96361.25
2019-03-15T07:57:06.536Z,96387.09
2019-03-15T07:59:36.838Z,96375.88
2019-03-15T08:02:08.722Z,96370.77
2019-03-15T08:04:39.061Z,96356.97
2019-03-15T08:07:09.378Z,96355.88
2019-03-15T08:09:39.737Z,96349.03
2019-03-15T08:12:09.991Z,96354.77
2019-03-15T08:14:40.274Z,96348.66
2019-03-15T08:17:10.581Z,96341.86
2019-03-15T08:19:40.859Z,96347.45
2019-03-15T08:22:11.241Z,96341.73
2019-03-15T08:24:50.860Z,96340.39
2019-03-15T08:27:16.088Z,96342.69
2019-03-15T08:29:45.731Z,96340.64
2019-03-15T08:32:16.080Z,96338.44
2019-03-15T08:34:46.617Z,96343.67
2019-03-15T08:37:16.976Z,96341.47
2019-03-15T08:39:47.404Z,96348.42
2019-03-15T08:42:17.703Z,96354.89
2019-03-15T08:44:47.983Z,96356.95
2019-03-15T08:47:21.537Z,96348.69
2019-03-15T08:49:50.432Z,96352.59
2019-03-15T08:52:20.781Z,96350.86
2019-03-15T08:55:04.716Z,96347.56
2019-03-15T08:57:24.407Z,96352.94
2019-03-15T08:59:57.716Z,96365.39
2019-03-15T09:02:26.703Z,96353.42
2019-03-15T09:04:57.029Z,96362.59
2019-03-15T09:07:27.315Z,96362.59
2019-03-15T09:09:57.566Z,96358.80
2019-03-15T09:12:29.591Z,96352.20
2019-03-15T09:14:59.883Z,96345.98
2019-03-15T09:17:30.251Z,96353.80
2019-03-15T09:20:00.648Z,96344.15
2019-03-15T09:22:31.361Z,96346.23
2019-03-15T09:25:02.812Z,96343.07
2019-03-15T09:27:33.254Z,96345.02
2019-03-15T09:30:03.722Z,96326.98
2019-03-15T09:32:34.053Z,96328.19
2019-03-15T09:35:04.464Z,96333.17
2019-03-15T09:37:35.162Z,96326.23
2019-03-15T09:40:06.968Z,96334.77
2019-03-15T09:42:37.223Z,96325.25
2019-03-15T09:45:09.617Z,96324.77
2019-03-15T09:47:39.871Z,96315.86
2019-03-15T09:50:21.528Z,96316.73
2019-03-15T09:52:43.283Z,96327.58
2019-03-15T09:55:13.711Z,96320.61
2019-03-15T09:57:44.000Z,96323.55
2019-03-15T10:00:15.529Z,96330.74
2019-03-15T10:02:45.831Z,96323.55
2019-03-15T10:05:16.170Z,96323.17
2019-03-15T10:07:46.618Z,96321.96
2019-03-15T10:10:19.093Z,96323.17
2019-03-15T10:12:50.803Z,96322.69
2019-03-15T10:15:21.063Z,96320.01
2019-03-15T10:17:51.454Z,96306.97
2019-03-15T10:20:21.681Z,96299.75
2019-03-15T10:23:05.607Z,96311.48
2019-03-15T10:25:24.046Z,96313.78
2019-03-15T10:27:55.523Z,96305.63
2019-03-15T10:30:25.837Z,96310.48
2019-03-15T10:32:56.134Z,96304.16
2019-03-15T10:35:26.412Z,96307.32
2019-03-15T10:37:56.824Z,96308.53
2019-03-15T10:40:27.065Z,96318.91
2019-03-15T10:42:57.498Z,96301.47
2019-03-15T10:45:27.746Z,96302.56
2019-03-15T10:47:58.152Z,96311.95
2019-03-15T10:50:28.421Z,96306.59
2019-03-15T10:52:58.813Z,96299.02
2019-03-15T10:55:29.123Z,96305.63
2019-03-15T10:57:59.530Z,96301.84
2019-03-15T11:00:30.142Z,96315.14
2019-03-15T11:03:00.446Z,96317.33
2019-03-15T11:05:30.682Z,96319.05
2019-03-15T11:08:01.033Z,96320.26
2019-03-15T11:10:31.382Z,96313.91
2019-03-15T11:13:01.696Z,96317.84
2019-03-15T11:15:32.006Z,96311.48
2019-03-15T11:18:02.375Z,96314.30
2019-03-15T11:20:32.980Z,96310.75
2019-03-15T11:23:03.374Z,96316.36
2019-03-15T11:25:34.231Z,96315.98
2019-03-15T11:28:04.554Z,96320.52
2019-03-15T11:30:34.799Z,96313.43
2019-03-15T11:33:05.176Z,96317.70
2019-03-15T11:35:35.560Z,96317.09
2019-03-15T11:38:05.954Z,96316.98
2019-03-15T11:40:37.970Z,96321.86
2019-03-15T11:43:08.190Z,96332.94
2019-03-15T11:45:38.576Z,96326.48
2019-03-15T11:48:09.236Z,96323.42
2019-03-15T11:50:39.673Z,96327.58
2019-03-15T11:53:10.044Z,96321.96
2019-03-15T11:55:40.452Z,96322.22
2019-03-15T11:58:11.191Z,96315.38
2019-03-15T12:00:42.449Z,96312.96
2019-03-15T12:03:12.737Z,96314.05
2019-03-15T12:05:43.024Z,96305.14
2019-03-15T12:08:13.345Z,96306.48
2019-03-15T12:10:43.605Z,96300.52
2019-03-15T12:13:14.002Z,96300.38
2019-03-15T12:15:44.407Z,96305.50
2019-03-15T12:18:14.701Z,96302.33
2019-03-15T12:20:45.080Z,96296.23
2019-03-15T12:23:15.963Z,96298.79
2019-03-15T12:25:46.231Z,96299.53
2019-03-15T12:28:16.485Z,96297.84
2019-03-15T12:30:46.695Z,96300.88
2019-03-15T12:33:16.918Z,96295.64
2019-03-15T12:35:47.687Z,96290.66
2019-03-15T12:38:17.955Z,96294.16
2019-03-15T12:40:48.269Z,96294.41
2019-03-15T12:43:18.511Z,96297.45
2019-03-15T12:45:48.784Z,96284.56
2019-03-15T12:48:19.655Z,96288.07
2019-03-15T12:50:49.935Z,96288.68
2019-03-15T12:53:18.545Z,96285.04
2019-03-15T12:55:49.162Z,96290.75
2019-03-15T12:58:19.614Z,96297.11
2019-03-15T13:00:50.584Z,96289.86
2019-03-15T13:03:20.942Z,96299.41
2019-03-15T13:05:51.267Z,96301.61
2019-03-15T13:08:22.204Z,96300.97
2019-03-15T13:10:52.567Z,96314.13
2019-03-15T13:13:22.945Z,96314.00
2019-03-15T13:15:53.893Z,96315.34
2019-03-15T13:18:24.127Z,96313.14
2019-03-15T13:20:54.513Z,96310.36
2019-03-15T13:23:28.367Z,96313.88
2019-03-15T13:25:59.808Z,96308.16
2019-03-15T13:28:31.492Z,96318.76
2019-03-15T13:31:06.290Z,96309.63
2019-03-15T13:33:36.530Z,96303.63
2019-03-15T13:36:06.913Z,96318.50
2019-03-15T13:38:37.117Z,96323.52
2019-03-15T13:41:07.500Z,96326.33
2019-03-15T13:43:38.179Z,96326.06
2019-03-15T13:46:08.427Z,96328.88
2019-03-15T13:48:38.780Z,96339.61
2019-03-15T13:51:09.075Z,96338.52
2019-03-15T13:53:39.417Z,96338.14
2019-03-15T13:56:10.080Z,96342.89
2019-03-15T13:58:40.463Z,96336.80
2019-03-15T14:01:11.267Z,96338.74
2019-03-15T14:03:41.662Z,96349.12
2019-03-15T14:06:12.273Z,96351.41
2019-03-15T14:08:59.900Z,96356.17
2019-03-15T14:11:36.503Z,96355.44
2019-03-15T14:14:17.283Z,96353.97
2019-03-15T14:16:57.806Z,96367.89
2019-03-15T14:19:35.195Z,96359.94
2019-03-15T14:22:12.464Z,96358.50
2019-03-15T14:24:48.552Z,96361.28
2019-03-15T14:27:37.562Z,96363.96
2019-03-15T14:30:16.558Z,96369.45
2019-03-15T14:32:55.164Z,96373.95
2019-03-15T14:35:37.837Z,96364.34
2019-03-15T14:38:13.944Z,96367.50
2019-03-15T14:40:54.839Z,96368.36
2019-03-15T14:43:31.411Z,96372.98
2019-03-15T14:46:11.744Z,96363.00
2019-03-15T14:48:46.059Z,96371.05
2019-03-15T14:51:25.076Z,96376.50
2019-03-15T14:54:03.045Z,96371.01
2019-03-15T14:56:38.436Z,96368.97
2019-03-15T14:59:08.700Z,96374.81
2019-03-15T15:01:39.109Z,96370.19
2019-03-15T15:04:09.439Z,96371.52
2019-03-15T15:06:39.708Z,96377.14
2019-03-15T15:09:09.953Z,96371.88
2019-03-15T15:11:40.355Z,96374.81
2019-03-15T15:14:15.752Z,96378.22
2019-03-15T15:16:49.067Z,96373.20
2019-03-15T15:19:22.876Z,96371.86
2019-03-15T15:22:00.197Z,96369.64
2019-03-15T15:24:44.512Z,96364.64
2019-03-15T15:27:18.118Z,96360.88
2019-03-15T15:29:54.252Z,96365.77
2019-03-15T15:32:28.297Z,96364.17
2019-03-15T15:35:02.568Z,96367.23
2019-03-15T15:37:33.549Z,96352.09
2019-03-15T15:40:03.828Z,96364.16
2019-03-15T15:42:34.608Z,96360.14
2019-03-15T15:45:05.375Z,96364.24
2019-03-15T15:47:35.689Z,96359.86
2019-03-15T15:50:06.134Z,96359.94
2019-03-15T15:52:36.424Z,96365.42
2019-03-15T15:55:06.781Z,96366.28
2019-03-15T15:57:37.100Z,96370.66
2019-03-15T16:00:09.097Z,96370.91
2019-03-15T16:02:39.456Z,96366.36
2019-03-15T16:05:10.002Z,96359.53
2019-03-15T16:07:43.175Z,96357.59
2019-03-15T16:10:13.504Z,96355.98
2019-03-15T16:12:46.338Z,96355.78
2019-03-15T16:15:16.568Z,96354.83
2019-03-15T16:17:46.931Z,96364.36
2019-03-15T16:20:19.237Z,96361.94
2019-03-15T16:22:49.467Z,96367.98
2019-03-15T16:25:19.888Z,96366.78
2019-03-15T16:27:50.143Z,96367.03
2019-03-15T16:30:20.453Z,96372.39
2019-03-15T16:32:50.654Z,96376.62
2019-03-15T16:35:22.911Z,96380.03
2019-03-15T16:37:55.504Z,96378.68
2019-03-15T16:40:28.289Z,96380.64
2019-03-15T16:42:58.582Z,96380.42
2019-03-15T16:45:32.290Z,96370.44
2019-03-15T16:48:03.357Z,96374.59
2019-03-15T16:50:33.682Z,96378.84
2019-03-15T16:53:03.977Z,96378.37
2019-03-15T16:55:34.456Z,96378.24
2019-03-15T16:58:10.513Z,96380.09
2019-03-15T17:00:41.210Z,96378.89
2019-03-15T17:03:11.735Z,96377.78
2019-03-15T17:05:42.739Z,96375.48
2019-03-15T17:08:13.357Z,96368.66
2019-03-15T17:10:43.952Z,96368.30
2019-03-15T17:13:14.293Z,96361.82
2019-03-15T17:15:44.872Z,96359.75
2019-03-15T17:18:15.450Z,96365.50
2019-03-15T17:20:46.120Z,96365.63
2019-03-15T17:23:16.651Z,96365.02
2019-03-15T17:25:48.259Z,96366.97
2019-03-15T17:28:19.089Z,96365.16
2019-03-15T17:30:51.572Z,96372.46
2019-03-15T17:33:21.883Z,96367.09
2019-03-15T17:35:52.332Z,96372.94
2019-03-15T17:38:22.655Z,96374.75
2019-03-15T17:40:52.979Z,96378.42
2019-03-15T17:43:24.324Z,96372.46
2019-03-15T17:45:54.664Z,96381.72
2019-03-15T17:48:25.043Z,96380.25
2019-03-15T17:50:55.460Z,96381.85
2019-03-15T17:53:25.713Z,96381.37
2019-03-15T17:55:56.725Z,96375.02
2019-03-15T17:58:27.011Z,96377.70
2019-03-15T18:00:57.334Z,96381.73
2019-03-15T18:03:27.710Z,96382.59
2019-03-15T18:05:58.309Z,96393.57
2019-03-15T18:08:28.640Z,96387.34
2019-03-15T18:11:01.128Z,96387.22
2019-03-15T18:13:31.565Z,96394.41
2019-03-15T18:16:01.815Z,96398.68
2019-03-15T18:18:32.131Z,96397.81
2019-03-15T18:21:02.521Z,96393.92
2019-03-15T18:23:33.089Z,96387.60
2019-03-15T18:26:03.654Z,96388.34
2019-03-15T18:28:34.016Z,96379.78
2019-03-15T18:31:04.427Z,96387.35
2019-03-15T18:33:34.686Z,96379.69
2019-03-15T18:36:05.137Z,96381.99
2019-03-15T18:38:35.426Z,96383.72
2019-03-15T18:41:05.682Z,96372.98
2019-03-15T18:43:35.967Z,96372.86
2019-03-15T18:46:06.295Z,96370.19
2019-03-15T18:48:36.697Z,96379.44
2019-03-15T18:51:07.037Z,96381.16
2019-03-15T18:53:37.302Z,96374.08
2019-03-15T18:56:09.859Z,96391.38
2019-03-15T18:58:40.159Z,96384.20
2019-03-15T19:01:10.483Z,96389.44
2019-03-15T19:03:40.872Z,96395.53
2019-03-15T19:06:11.201Z,96385.19
2019-03-15T19:08:41.581Z,96382.98
2019-03-15T19:11:11.862Z,96389.82
2019-03-15T19:13:42.207Z,96379.83
2019-03-15T19:16:20.087Z,96387.75
2019-03-15T19:18:45.774Z,96387.75
2019-03-15T19:21:16.355Z,96383.25
2019-03-15T19:23:46.617Z,96392.63
2019-03-15T19:26:16.987Z,96383.13
2019-03-15T19:28:47.349Z,96386.19
2019-03-15T19:31:17.642Z,96382.52
2019-03-15T19:33:48.323Z,96383.38
2019-03-15T19:36:18.689Z,96369.48
2019-03-15T19:38:51.124Z,96373.86
2019-03-15T19:41:21.343Z,96388.27
2019-03-15T19:43:51.660Z,96388.61
2019-03-15T19:46:21.951Z,96386.80
2019-03-15T19:48:52.670Z,96381.81
2019-03-15T19:51:23.188Z,96386.31
2019-03-15T19:53:53.508Z,96392.06
2019-03-15T19:56:23.897Z,96384.02
2019-03-15T19:58:54.483Z,96385.23
2019-03-15T20:01:24.776Z,96386.09
2019-03-15T20:03:55.100Z,96369.88
2019-03-15T20:06:25.594Z,96382.20
2019-03-15T20:08:55.924Z,96386.22
2019-03-15T20:11:27.348Z,96387.21
2019-03-15T20:13:57.882Z,96372.94
2019-03-15T20:16:28.360Z,96375.49
2019-03-15T20:18:58.691Z,96374.89
2019-03-15T20:21:29.183Z,96381.85
2019-03-15T20:23:59.618Z,96375.23
2019-03-15T20:26:29.925Z,96387.95
2019-03-15T20:29:01.575Z,96376.36
2019-03-15T20:31:31.971Z,96373.20
2019-03-15T20:34:02.335Z,96381.85
2019-03-15T20:36:33.819Z,96376.00
2019-03-15T20:39:06.651Z,96386.73
2019-03-15T20:41:37.735Z,96368.56
2019-03-15T20:44:08.382Z,96360.38
2019-03-15T20:46:40.307Z,96372.84
2019-03-15T20:49:11.285Z,96361.59
2019-03-15T20:51:44.935Z,96352.94
2019-03-15T20:54:15.408Z,96343.45
2019-03-15T20:56:47.467Z,96337.70
2019-03-15T20:59:18.550Z,96346.96
2019-03-15T21:01:49.450Z,96351.50
2019-03-15T21:04:20.954Z,96333.06
2019-03-15T21:06:54.254Z,96329.04
2019-03-15T21:09:25.241Z,96336.61
2019-03-15T21:11:56.466Z,96341.50
2019-03-15T21:14:30.514Z,96341.84
2019-03-15T21:17:01.916Z,96354.40
2019-03-15T21:19:32.752Z,96348.55
2019-03-15T21:22:04.134Z,96358.20
2019-03-15T21:24:34.484Z,96354.40
2019-03-15T21:27:08.423Z,96362.33
2019-03-15T21:29:38.942Z,96360.51
2019-03-15T21:32:09.383Z,96347.83
2019-03-15T21:34:39.753Z,96345.98
2019-03-15T21:37:10.188Z,96363.80
2019-03-15T21:39:40.424Z,96367.70
2019-03-15T21:42:10.868Z,96358.78
2019-03-15T21:44:41.142Z,96366.36
2019-03-15T21:47:11.425Z,96374.88
2019-03-15T21:49:41.766Z,96373.93
2019-03-15T21:52:12.096Z,96367.70
2019-03-15T21:54:42.455Z,96360.61
2019-03-15T21:57:12.771Z,96351.83
2019-03-15T21:59:43.105Z,96361.47
2019-03-15T22:02:15.214Z,96363.91
2019-03-15T22:04:45.574Z,96361.34
2019-03-15T22:07:16.003Z,96363.68
2019-03-15T22:09:46.276Z,96355.03
2019-03-15T22:12:16.633Z,96366.81
2019-03-15T22:14:47.033Z,96356.81
2019-03-15T22:17:17.283Z,96355.56
2019-03-15T22:19:47.534Z,96351.23
2019-03-15T22:22:20.207Z,96348.55
2019-03-15T22:24:49.877Z,96363.08
2019-03-15T22:27:23.025Z,96357.19
2019-03-15T22:29:54.012Z,96354.64
2019-03-15T22:32:25.416Z,96348.19
2019-03-15T22:34:57.312Z,96337.84
2019-03-15T22:37:27.626Z,96327.20
2019-03-15T22:39:58.013Z,96323.91
2019-03-15T22:42:28.305Z,96323.43
2019-03-15T22:44:58.639Z,96318.55
2019-03-15T22:47:30.637Z,96308.33
2019-03-15T22:50:01.846Z,96314.52
2019-03-15T22:52:32.259Z,96309.05
2019-03-15T22:55:02.622Z,96305.38
2019-03-15T22:57:33.864Z,96305.99
2019-03-15T23:00:05.897Z,96306.47
2019-03-15T23:02:38.220Z,96298.94
2019-03-15T23:05:08.646Z,96297.59
2019-03-15T23:07:39.034Z,96300.28
2019-03-15T23:10:09.518Z,96299.41
2019-03-15T23:12:39.822Z,96298.94
2019-03-15T23:15:10.122Z,96302.45
2019-03-15T23:17:40.467Z,96313.69
2019-03-15T23:20:10.818Z,96319.06
2019-03-15T23:22:41.201Z,96315.99
2019-03-15T23:25:11.582Z,96322.70
2019-03-15T23:27:41.859Z,96312.83
2019-03-15T23:30:15.079Z,96305.74
2019-03-15T23:32:46.456Z,96300.38
2019-03-15T23:35:16.775Z,96297.34
2019-03-15T23:37:47.027Z,96293.92
2019-03-15T23:40:17.330Z,96304.66
2019-03-15T23:42:49.468Z,96303.57
2019-03-15T23:45:19.799Z,96305.01
2019-03-15T23:47:50.078Z,96302.84
2019-03-15T23:50:20.380Z,96303.31
2019-03-15T23:52:50.706Z,96296.23
2019-03-15T23:55:21.006Z,96300.38
2019-03-15T23:57:51.334Z,96297.35
